Norfolk, Nebraska
Current Conditions -  °F | °C
As of 11:56 AM on Monday 22 Dec 2014 (Local Time) from KOFK Reporting Station
Overcast Overcast  
Wind Chill: 35°   Ceiling: 1200
Heat Index: 42°   Visibility: 10mi
Dew Point: 38°   Wind: 14mph
Humidity: 85%   Direction: 320°NW
Pressure: 29.43"   Gusts: NA
Location:  42.03°N, 97.41°W
Report Text: KOFK 221756Z AUTO 32012KT 10SM OVC012 06/03 A2943 RMK AO2 SLP974 T00560033 10061 20039 58010
Loading
Personal Weather Stations






























Interactive Weather Map New forecast layout! Learn more

10-Day Weather Forecast

Advertisements
Track Severe Weather on mobile